Time;durP1;ratioP1;P1;durP2;ratioP2;P2;SDS_P1;SDS_P2;PMS_P1;PMS_P2;Temp;Humidity;BMP_temperature;BMP_pressure;BME280_temperature;BME280_humidity;BME280_pressure;Samples;Min_cycle;Max_cycle;Signal;HPM_P1;HPM_P2
2022/12/18 00:01:38;;;;;;;43.88;25.73;;;-0.10;99.90;;;;;;5037801;28;20119;-47
2022/12/18 00:04:05;;;;;;;45.15;26.70;;;-0.20;99.90;;;;;;5042215;28;20060;-44
2022/12/18 00:06:32;;;;;;;41.95;24.52;;;-0.10;99.90;;;;;;5040308;28;20103;-47
2022/12/18 00:08:59;;;;;;;42.50;25.38;;;-0.10;99.90;;;;;;5049925;28;20549;-42
2022/12/18 00:11:26;;;;;;;43.13;25.58;;;-0.20;99.90;;;;;;5037441;28;20111;-46
2022/12/18 00:13:53;;;;;;;42.60;26.20;;;-0.10;99.90;;;;;;5037599;28;20041;-46
2022/12/18 00:16:20;;;;;;;45.22;27.30;;;-0.10;99.90;;;;;;5041092;28;20506;-46
2022/12/18 00:18:47;;;;;;;45.50;27.15;;;-0.10;99.90;;;;;;5041557;28;20123;-46
2022/12/18 00:21:14;;;;;;;43.50;26.30;;;-0.10;99.90;;;;;;5045619;28;20065;-46
2022/12/18 00:23:40;;;;;;;42.83;25.30;;;-0.10;99.90;;;;;;5037686;28;20037;-48
2022/12/18 00:26:09;;;;;;;44.63;25.02;;;-0.10;99.90;;;;;;5041702;28;20059;-49
2022/12/18 00:28:35;;;;;;;46.58;25.48;;;-0.10;99.90;;;;;;5043025;28;20041;-45
2022/12/18 00:31:02;;;;;;;44.17;25.83;;;-0.10;99.90;;;;;;5046413;28;20463;-46
2022/12/18 00:33:29;;;;;;;46.58;25.90;;;-0.20;99.90;;;;;;5045902;28;20048;-45
2022/12/18 00:35:56;;;;;;;43.75;25.40;;;-0.20;99.90;;;;;;5049304;28;20127;-49
2022/12/18 00:38:22;;;;;;;48.05;27.05;;;-0.10;99.90;;;;;;5035291;28;20083;-44
2022/12/18 00:40:50;;;;;;;40.72;24.83;;;-0.20;99.90;;;;;;5042881;28;20106;-46
2022/12/18 00:43:16;;;;;;;43.28;26.15;;;-0.20;99.90;;;;;;5052523;28;20373;-48
2022/12/18 00:45:44;;;;;;;44.30;25.80;;;-0.20;99.90;;;;;;5042333;28;20049;-44
2022/12/18 00:48:10;;;;;;;44.38;25.42;;;-0.20;99.90;;;;;;5034226;28;20385;-45
2022/12/18 00:50:38;;;;;;;44.63;26.55;;;-0.20;99.90;;;;;;5032684;28;20115;-46
2022/12/18 00:53:04;;;;;;;45.28;26.02;;;-0.30;99.90;;;;;;5043810;28;20045;-47
2022/12/18 00:55:31;;;;;;;45.65;24.42;;;-0.30;99.90;;;;;;5052669;28;20124;-50
2022/12/18 00:57:58;;;;;;;43.88;25.42;;;-0.40;99.90;;;;;;5055504;28;20036;-44
2022/12/18 01:00:24;;;;;;;42.67;24.85;;;-0.40;99.90;;;;;;5055082;28;20114;-47
2022/12/18 01:02:51;;;;;;;42.45;24.67;;;-0.40;99.90;;;;;;5042562;28;20041;-47
2022/12/18 01:05:18;;;;;;;43.17;23.00;;;-0.40;99.90;;;;;;5038941;28;20380;-45
2022/12/18 01:07:45;;;;;;;47.00;25.20;;;-0.50;99.90;;;;;;5053665;28;20057;-46
2022/12/18 01:10:12;;;;;;;41.85;24.55;;;-0.50;99.90;;;;;;5051553;28;20073;-49
2022/12/18 01:12:39;;;;;;;42.40;24.63;;;-0.50;99.90;;;;;;5034024;28;20095;-44
2022/12/18 01:15:06;;;;;;;38.90;23.50;;;-0.50;99.90;;;;;;5033761;28;20049;-44
2022/12/18 01:17:32;;;;;;;39.92;24.00;;;-0.50;99.90;;;;;;5035301;28;20103;-44
2022/12/18 01:20:00;;;;;;;45.80;25.17;;;-0.60;99.90;;;;;;5033105;28;20037;-50
2022/12/18 01:22:26;;;;;;;41.00;24.40;;;-0.60;99.90;;;;;;5053772;28;20072;-46
2022/12/18 01:24:53;;;;;;;41.90;24.08;;;-0.60;99.90;;;;;;5035885;28;20045;-45
2022/12/18 01:27:21;;;;;;;43.67;24.15;;;-0.60;99.90;;;;;;5032962;28;20484;-45
2022/12/18 01:29:50;;;;;;;36.13;22.38;;;-0.60;99.90;;;;;;5033330;28;20475;-52
2022/12/18 01:32:18;;;;;;;39.58;22.65;;;-0.60;99.90;;;;;;5033640;28;20041;-49
2022/12/18 01:34:45;;;;;;;41.05;23.33;;;-0.60;99.90;;;;;;5035032;28;20425;-47
2022/12/18 01:37:12;;;;;;;42.42;23.98;;;-0.70;99.90;;;;;;5033128;28;20064;-44
2022/12/18 01:39:38;;;;;;;42.75;24.13;;;-0.70;99.90;;;;;;5034796;28;20136;-45
2022/12/18 01:42:05;;;;;;;44.15;24.58;;;-0.70;99.90;;;;;;5033206;28;20396;-51
2022/12/18 01:44:32;;;;;;;39.58;22.20;;;-0.70;99.90;;;;;;5032858;28;20083;-48
2022/12/18 01:46:59;;;;;;;38.95;22.23;;;-0.70;99.90;;;;;;5034579;28;20045;-48
2022/12/18 01:49:25;;;;;;;36.65;21.38;;;-0.70;99.90;;;;;;5032591;28;20046;-44
2022/12/18 01:51:52;;;;;;;41.63;23.30;;;-0.70;99.90;;;;;;5033730;28;20385;-46
2022/12/18 01:54:19;;;;;;;34.92;21.30;;;-0.70;99.90;;;;;;5052618;28;20159;-45
2022/12/18 01:56:46;;;;;;;35.70;20.40;;;-0.70;99.90;;;;;;5052578;28;20108;-49
2022/12/18 01:59:13;;;;;;;38.63;21.98;;;-0.70;99.90;;;;;;5054144;28;20095;-44
2022/12/18 02:01:39;;;;;;;38.53;21.45;;;-0.70;99.90;;;;;;5053000;28;20048;-47
2022/12/18 02:04:08;;;;;;;40.90;23.05;;;-0.70;99.90;;;;;;5034359;28;20049;-43
2022/12/18 02:06:36;;;;;;;38.05;22.90;;;-0.70;99.90;;;;;;5032657;28;20053;-45
2022/12/18 02:09:04;;;;;;;47.50;25.42;;;-0.70;99.90;;;;;;5032870;28;20045;-43
2022/12/18 02:11:30;;;;;;;39.22;22.55;;;-0.70;99.90;;;;;;5046836;28;20044;-44
2022/12/18 02:13:57;;;;;;;38.22;21.23;;;-0.70;99.90;;;;;;5053851;28;20310;-44
2022/12/18 02:16:25;;;;;;;35.85;20.23;;;-0.70;99.90;;;;;;5052685;28;20149;-45
2022/12/18 02:18:52;;;;;;;36.30;19.23;;;-0.70;99.90;;;;;;5051833;28;20056;-45
2022/12/18 02:21:19;;;;;;;38.10;20.33;;;-0.70;99.90;;;;;;5033502;28;20532;-47
2022/12/18 02:23:45;;;;;;;36.53;20.77;;;-0.80;99.90;;;;;;5032615;28;20084;-44
2022/12/18 02:26:12;;;;;;;35.22;20.45;;;-0.80;99.90;;;;;;5033066;28;20041;-43
2022/12/18 02:28:39;;;;;;;37.00;21.73;;;-0.70;99.90;;;;;;5035517;28;20508;-49
2022/12/18 02:31:05;;;;;;;40.20;22.08;;;-0.80;99.90;;;;;;5039761;28;20045;-47
2022/12/18 02:33:33;;;;;;;34.60;20.02;;;-0.80;99.90;;;;;;5041128;28;20076;-47
2022/12/18 02:36:00;;;;;;;31.90;19.48;;;-0.80;99.90;;;;;;5038500;28;20350;-48
2022/12/18 02:38:28;;;;;;;37.55;19.58;;;-0.80;99.90;;;;;;5039419;28;20045;-49
2022/12/18 02:40:56;;;;;;;29.50;18.13;;;-0.80;99.90;;;;;;5040784;28;20180;-46
2022/12/18 02:43:23;;;;;;;31.58;19.63;;;-0.80;99.90;;;;;;5030015;28;20416;-50
2022/12/18 02:45:50;;;;;;;35.95;19.90;;;-0.80;99.90;;;;;;5038659;28;20053;-46
2022/12/18 02:48:18;;;;;;;30.92;19.45;;;-0.80;99.90;;;;;;5039951;28;20041;-49
2022/12/18 02:50:44;;;;;;;30.95;18.75;;;-0.80;99.90;;;;;;5037019;28;20080;-48
2022/12/18 02:53:11;;;;;;;34.40;17.83;;;-0.80;99.90;;;;;;5040879;28;20078;-46
2022/12/18 02:55:38;;;;;;;28.08;17.13;;;-0.80;99.90;;;;;;5039701;28;20107;-45
2022/12/18 02:58:07;;;;;;;29.63;17.73;;;-0.80;99.90;;;;;;5039576;28;20489;-44
2022/12/18 03:00:37;;;;;;;30.85;17.75;;;-0.80;99.90;;;;;;5037141;28;20037;-43
2022/12/18 03:03:04;;;;;;;32.70;18.95;;;-0.80;99.90;;;;;;5037909;28;20077;-42
2022/12/18 03:05:31;;;;;;;31.90;18.63;;;-0.90;99.90;;;;;;5039539;28;20037;-43
2022/12/18 03:07:57;;;;;;;33.25;19.90;;;-0.90;99.90;;;;;;5041331;28;20045;-50
2022/12/18 03:10:28;;;;;;;33.47;18.65;;;-0.90;99.90;;;;;;5037512;28;20057;-43
2022/12/18 03:12:55;;;;;;;30.02;17.67;;;-0.90;99.90;;;;;;5039319;28;20045;-48
2022/12/18 03:15:21;;;;;;;34.15;18.38;;;-0.90;99.90;;;;;;5040857;28;20030;-47
2022/12/18 03:17:54;;;;;;;32.25;18.13;;;-0.90;99.90;;;;;;5036562;28;20128;-47
2022/12/18 03:20:25;;;;;;;34.55;17.55;;;-0.90;99.90;;;;;;5038117;28;20542;-45
2022/12/18 03:22:52;;;;;;;32.30;18.23;;;-0.90;99.90;;;;;;5038819;28;20045;-43
2022/12/18 03:25:20;;;;;;;35.05;20.25;;;-0.90;99.90;;;;;;5039277;28;20064;-46
2022/12/18 03:27:47;;;;;;;35.97;19.90;;;-0.90;99.90;;;;;;5038209;28;20073;-44
2022/12/18 03:30:17;;;;;;;39.28;21.35;;;-0.90;99.90;;;;;;5039296;28;20152;-47
2022/12/18 03:32:44;;;;;;;33.55;19.77;;;-0.90;99.90;;;;;;5042297;28;20048;-50
2022/12/18 03:35:11;;;;;;;35.03;20.55;;;-0.90;99.90;;;;;;5038065;28;22994;-44
2022/12/18 03:37:43;;;;;;;36.53;20.25;;;-0.90;99.90;;;;;;5041601;28;20053;-44
2022/12/18 03:40:10;;;;;;;34.42;18.92;;;-0.90;99.90;;;;;;5040205;28;20547;-45
2022/12/18 03:42:37;;;;;;;32.67;19.25;;;-0.90;99.90;;;;;;5039421;28;20067;-49
2022/12/18 03:45:08;;;;;;;35.42;19.45;;;-0.90;99.90;;;;;;5039274;28;20083;-48
2022/12/18 03:47:37;;;;;;;34.20;18.85;;;-0.90;99.90;;;;;;5038408;28;20041;-42
2022/12/18 03:50:05;;;;;;;27.52;16.58;;;-0.90;99.90;;;;;;5033534;28;20053;-46
2022/12/18 03:52:39;;;;;;;31.92;18.27;;;-0.90;99.90;;;;;;5039995;28;20129;-46
2022/12/18 03:55:07;;;;;;;33.92;18.60;;;-0.90;99.90;;;;;;5042657;28;20046;-44
2022/12/18 03:57:34;;;;;;;34.13;19.65;;;-0.80;99.90;;;;;;5043869;28;20041;-43
2022/12/18 04:00:03;;;;;;;31.88;18.52;;;-0.80;99.90;;;;;;5042030;28;20050;-50
2022/12/18 04:02:39;;;;;;;34.17;18.90;;;-0.80;99.90;;;;;;5041937;28;20115;-42
2022/12/18 04:05:07;;;;;;;30.17;17.35;;;-0.80;99.90;;;;;;5041792;28;20064;-45
2022/12/18 04:07:37;;;;;;;31.05;17.85;;;-0.80;99.90;;;;;;5042592;28;20087;-49
2022/12/18 04:10:06;;;;;;;38.47;18.75;;;-0.80;99.90;;;;;;5042509;28;20041;-45
2022/12/18 04:12:33;;;;;;;33.67;17.60;;;-0.80;99.90;;;;;;5040852;28;20052;-49
2022/12/18 04:15:00;;;;;;;35.78;18.77;;;-0.80;99.90;;;;;;5043576;28;20046;-50
2022/12/18 04:17:26;;;;;;;37.00;19.27;;;-0.80;99.90;;;;;;5043337;28;20369;-48
2022/12/18 04:19:53;;;;;;;34.47;19.05;;;-0.80;99.90;;;;;;5041412;28;20049;-46
2022/12/18 04:22:21;;;;;;;32.22;17.80;;;-0.70;99.90;;;;;;5042853;28;20048;-49
2022/12/18 04:24:54;;;;;;;35.53;19.75;;;-0.70;99.90;;;;;;5043249;28;20033;-44
2022/12/18 04:27:29;;;;;;;30.98;18.65;;;-0.70;99.90;;;;;;5039474;28;20353;-44
2022/12/18 04:29:58;;;;;;;32.75;18.83;;;-0.70;99.90;;;;;;5044350;28;20033;-47
2022/12/18 04:32:24;;;;;;;30.75;18.08;;;-0.70;99.90;;;;;;5042676;28;20087;-46
2022/12/18 04:34:51;;;;;;;30.42;18.40;;;-0.60;99.90;;;;;;5043309;28;20041;-48
2022/12/18 04:37:18;;;;;;;34.13;18.75;;;-0.60;99.90;;;;;;5041087;28;20025;-47
2022/12/18 04:39:48;;;;;;;31.52;18.42;;;-0.60;99.90;;;;;;5043064;28;20075;-47
2022/12/18 04:42:22;;;;;;;34.58;19.02;;;-0.60;99.90;;;;;;5042049;28;20381;-49
2022/12/18 04:44:49;;;;;;;32.38;19.45;;;-0.60;99.90;;;;;;5043098;28;20116;-46
2022/12/18 04:47:15;;;;;;;35.47;19.85;;;-0.50;99.90;;;;;;5043799;28;20083;-47
2022/12/18 04:49:42;;;;;;;30.15;18.50;;;-0.50;99.90;;;;;;5039850;28;20120;-47
2022/12/18 04:52:09;;;;;;;33.00;19.27;;;-0.40;99.90;;;;;;5032023;28;20421;-47
2022/12/18 04:54:35;;;;;;;34.38;19.45;;;-0.40;99.90;;;;;;5039024;28;20341;-46
2022/12/18 04:57:02;;;;;;;36.17;19.58;;;-0.30;99.90;;;;;;5041863;28;20099;-47
2022/12/18 04:59:29;;;;;;;34.80;20.20;;;-0.30;99.90;;;;;;5041046;28;20038;-44
2022/12/18 05:01:56;;;;;;;32.67;19.92;;;-0.20;99.90;;;;;;5041869;28;20065;-44
2022/12/18 05:04:23;;;;;;;34.05;20.55;;;-0.20;99.90;;;;;;5042610;28;20388;-46
2022/12/18 05:06:49;;;;;;;33.50;19.58;;;-0.10;99.90;;;;;;5042238;28;20103;-43
2022/12/18 05:09:16;;;;;;;33.83;20.15;;;-0.10;99.90;;;;;;5041656;28;20362;-42
2022/12/18 05:11:45;;;;;;;32.33;20.02;;;0.00;99.90;;;;;;5041991;28;20049;-42
2022/12/18 05:14:11;;;;;;;32.35;18.58;;;0.00;99.90;;;;;;5041650;28;20037;-43
2022/12/18 05:16:38;;;;;;;32.58;19.33;;;0.00;99.90;;;;;;5041648;28;20030;-44
2022/12/18 05:19:05;;;;;;;38.17;19.98;;;0.00;99.90;;;;;;5044766;28;20140;-46
2022/12/18 05:21:32;;;;;;;32.35;20.10;;;0.10;99.90;;;;;;5032555;28;20508;-44
2022/12/18 05:23:59;;;;;;;33.80;20.10;;;0.10;99.90;;;;;;5032592;28;20191;-43
2022/12/18 05:26:25;;;;;;;30.95;19.15;;;0.20;99.90;;;;;;5038349;28;20053;-45
2022/12/18 05:28:52;;;;;;;34.90;20.60;;;0.20;99.90;;;;;;5042385;28;20487;-42
2022/12/18 05:31:19;;;;;;;32.20;20.25;;;0.20;99.90;;;;;;5039451;28;20049;-44
2022/12/18 05:33:46;;;;;;;31.77;19.17;;;0.20;99.90;;;;;;5042307;28;20091;-42
2022/12/18 05:36:12;;;;;;;30.85;19.70;;;0.20;99.90;;;;;;5044065;28;20053;-50
2022/12/18 05:38:39;;;;;;;33.15;20.40;;;0.20;99.90;;;;;;5039959;28;20068;-50
2022/12/18 05:41:06;;;;;;;33.58;19.27;;;0.30;99.90;;;;;;5047262;28;20492;-52
2022/12/18 05:43:33;;;;;;;33.75;20.60;;;0.30;99.90;;;;;;5051279;28;20110;-46
2022/12/18 05:45:59;;;;;;;33.10;20.65;;;0.30;99.90;;;;;;5033624;28;20049;-48
2022/12/18 05:48:26;;;;;;;36.47;21.08;;;0.30;99.90;;;;;;5034265;28;20041;-44
2022/12/18 05:50:53;;;;;;;36.03;19.92;;;0.30;99.90;;;;;;5053931;28;20083;-44
2022/12/18 05:53:19;;;;;;;36.58;20.20;;;0.40;99.90;;;;;;5053975;28;20467;-42
2022/12/18 05:55:46;;;;;;;38.40;21.35;;;0.40;99.90;;;;;;5053782;28;20075;-47
2022/12/18 05:58:13;;;;;;;34.95;21.58;;;0.40;99.90;;;;;;5033239;28;20041;-46
2022/12/18 06:00:40;;;;;;;35.88;20.33;;;0.40;99.90;;;;;;5052650;28;20065;-44
2022/12/18 06:03:06;;;;;;;34.83;20.92;;;0.40;99.90;;;;;;5039820;28;20073;-48
2022/12/18 06:05:33;;;;;;;31.17;20.17;;;0.40;99.90;;;;;;5043284;28;20049;-44
2022/12/18 06:08:00;;;;;;;35.10;20.52;;;0.50;99.90;;;;;;5033971;28;20103;-43
2022/12/18 06:10:27;;;;;;;37.10;21.05;;;0.50;99.90;;;;;;5034066;28;20049;-46
2022/12/18 06:12:53;;;;;;;35.42;19.75;;;0.50;99.90;;;;;;5033445;28;20132;-45
2022/12/18 06:15:20;;;;;;;32.00;20.05;;;0.50;99.90;;;;;;5032099;28;20029;-42
2022/12/18 06:17:47;;;;;;;32.28;20.35;;;0.50;99.90;;;;;;5033957;28;20099;-43
2022/12/18 06:20:14;;;;;;;35.08;21.00;;;0.60;99.90;;;;;;5033011;28;20045;-43
2022/12/18 06:22:41;;;;;;;39.55;20.73;;;0.60;99.90;;;;;;5033058;28;20044;-47
2022/12/18 06:25:07;;;;;;;31.17;19.75;;;0.60;99.90;;;;;;5033620;28;20433;-45
2022/12/18 06:27:34;;;;;;;34.58;20.23;;;0.60;99.90;;;;;;5033689;28;20477;-48
2022/12/18 06:30:01;;;;;;;31.48;20.15;;;0.60;99.90;;;;;;5031395;28;20060;-46
2022/12/18 06:32:28;;;;;;;32.00;19.73;;;0.60;99.90;;;;;;5033110;28;20124;-49
2022/12/18 06:34:55;;;;;;;33.65;20.40;;;0.60;99.90;;;;;;5032789;28;20626;-44
2022/12/18 06:37:24;;;;;;;31.63;19.55;;;0.60;99.90;;;;;;5031201;28;20041;-48
2022/12/18 06:39:51;;;;;;;30.45;19.45;;;0.70;99.90;;;;;;5033620;28;20061;-48
2022/12/18 06:42:18;;;;;;;33.03;19.50;;;0.70;99.90;;;;;;5033496;28;20056;-47
2022/12/18 06:44:47;;;;;;;30.95;18.85;;;0.70;99.90;;;;;;5033325;28;20045;-44
2022/12/18 06:47:14;;;;;;;33.95;20.05;;;0.70;99.90;;;;;;5033189;28;20042;-48
2022/12/18 06:49:41;;;;;;;28.55;19.05;;;0.70;99.90;;;;;;5034264;28;20041;-45
2022/12/18 06:52:07;;;;;;;30.75;18.55;;;0.80;99.90;;;;;;5053219;28;20072;-48
2022/12/18 06:54:34;;;;;;;29.77;19.60;;;0.80;99.90;;;;;;5052692;28;20507;-44
2022/12/18 06:57:01;;;;;;;31.88;18.83;;;0.80;99.90;;;;;;5038912;28;20481;-46
2022/12/18 06:59:27;;;;;;;30.90;17.92;;;0.80;99.90;;;;;;5032509;28;20113;-46
2022/12/18 07:01:54;;;;;;;29.90;18.48;;;0.90;99.90;;;;;;5049609;28;20137;-45
2022/12/18 07:04:21;;;;;;;32.42;19.10;;;0.90;99.90;;;;;;5032941;28;20398;-44
2022/12/18 07:06:48;;;;;;;29.15;18.52;;;0.90;99.90;;;;;;5031906;28;20095;-46
2022/12/18 07:09:15;;;;;;;30.20;19.08;;;0.90;99.90;;;;;;5031459;28;20049;-49
2022/12/18 07:11:41;;;;;;;34.78;18.88;;;0.90;99.90;;;;;;5032525;28;20596;-48
2022/12/18 07:14:08;;;;;;;30.63;18.88;;;0.90;99.90;;;;;;5032693;28;20124;-47
2022/12/18 07:16:35;;;;;;;31.33;19.38;;;0.90;99.90;;;;;;5032747;28;20453;-47
2022/12/18 07:19:02;;;;;;;32.70;19.33;;;1.00;99.90;;;;;;5032692;28;20083;-43
2022/12/18 07:21:28;;;;;;;29.98;18.65;;;1.00;99.90;;;;;;5034664;28;20073;-49
2022/12/18 07:23:55;;;;;;;33.10;19.17;;;1.00;99.90;;;;;;5032691;28;20108;-44
2022/12/18 07:26:22;;;;;;;29.63;19.45;;;1.00;99.90;;;;;;5035921;28;20045;-47
2022/12/18 07:28:49;;;;;;;34.20;19.17;;;1.10;99.90;;;;;;5036878;28;20046;-51
2022/12/18 07:31:15;;;;;;;33.65;18.70;;;1.10;99.90;;;;;;5036767;28;20088;-47
2022/12/18 07:33:42;;;;;;;28.08;18.75;;;1.10;99.90;;;;;;5036588;28;20044;-45
2022/12/18 07:36:09;;;;;;;31.92;18.17;;;1.10;99.90;;;;;;5036007;28;20065;-50
2022/12/18 07:38:36;;;;;;;35.83;20.00;;;1.10;99.90;;;;;;5036477;28;20037;-47
2022/12/18 07:41:03;;;;;;;29.13;17.90;;;1.10;99.90;;;;;;5035489;28;20436;-45
2022/12/18 07:43:32;;;;;;;28.73;18.42;;;1.10;99.90;;;;;;5035817;28;20042;-45
2022/12/18 07:45:58;;;;;;;30.25;18.77;;;1.10;99.90;;;;;;5036367;28;20048;-46
2022/12/18 07:48:26;;;;;;;29.85;18.48;;;1.10;99.90;;;;;;5042205;28;20350;-45
2022/12/18 07:50:52;;;;;;;32.17;18.92;;;1.10;99.90;;;;;;5039798;28;20088;-45
2022/12/18 07:53:19;;;;;;;32.25;19.45;;;1.10;99.90;;;;;;5036223;28;20091;-43
2022/12/18 07:55:46;;;;;;;29.27;18.13;;;1.10;99.90;;;;;;5035531;28;21835;-44
2022/12/18 07:58:32;;;;;;;32.28;19.10;;;1.10;99.90;;;;;;5038008;28;20055;-48
2022/12/18 08:00:59;;;;;;;29.10;18.65;;;1.10;99.90;;;;;;5039128;28;20460;-44
2022/12/18 08:03:26;;;;;;;30.95;20.20;;;1.20;99.90;;;;;;5035762;28;20069;-43
2022/12/18 08:05:53;;;;;;;29.52;18.90;;;1.10;99.90;;;;;;5039777;28;20176;-44
2022/12/18 08:08:20;;;;;;;28.48;18.27;;;1.20;99.90;;;;;;5039216;28;20400;-43
2022/12/18 08:10:47;;;;;;;29.20;17.98;;;1.20;99.90;;;;;;5043716;28;20033;-46
2022/12/18 08:13:13;;;;;;;30.52;18.90;;;1.20;99.90;;;;;;5056808;28;20476;-43
2022/12/18 08:15:40;;;;;;;30.60;19.30;;;1.20;99.90;;;;;;5055467;28;20064;-51
2022/12/18 08:18:07;;;;;;;31.00;19.42;;;1.20;99.90;;;;;;5056294;28;20106;-45
2022/12/18 08:20:41;;;;;;;30.20;19.15;;;1.20;99.90;;;;;;5063844;28;20477;-43
2022/12/18 08:23:08;;;;;;;31.15;19.08;;;1.20;99.90;;;;;;5066547;28;20059;-47
2022/12/18 08:25:34;;;;;;;32.42;18.85;;;1.30;99.90;;;;;;5037419;28;20099;-49
2022/12/18 08:28:01;;;;;;;29.45;19.75;;;1.30;99.90;;;;;;5050792;28;20107;-45
2022/12/18 08:30:28;;;;;;;33.97;20.30;;;1.30;99.90;;;;;;5055954;28;20087;-47
2022/12/18 08:32:54;;;;;;;29.23;19.40;;;1.30;99.90;;;;;;5055830;28;20075;-46
2022/12/18 08:35:21;;;;;;;33.22;19.27;;;1.30;99.90;;;;;;5054585;28;20446;-42
2022/12/18 08:37:48;;;;;;;29.35;19.08;;;1.40;99.90;;;;;;5054805;28;20045;-44
2022/12/18 08:40:15;;;;;;;33.42;19.88;;;1.40;99.90;;;;;;5049928;28;20099;-47
2022/12/18 08:45:27;;;;;;;33.30;19.87;;;1.40;99.90;;;;;;5037749;28;20041;-47
2022/12/18 08:47:53;;;;;;;35.53;19.70;;;1.50;99.90;;;;;;5037026;28;20034;-47
2022/12/18 08:50:20;;;;;;;31.23;19.88;;;1.50;99.90;;;;;;5034874;28;20049;-47
2022/12/18 08:52:47;;;;;;;30.42;18.80;;;1.50;99.90;;;;;;5036812;28;20045;-47
2022/12/18 08:55:14;;;;;;;32.00;19.42;;;1.50;99.90;;;;;;5043455;28;20124;-48
2022/12/18 08:57:40;;;;;;;31.63;19.60;;;1.60;99.90;;;;;;5034915;28;20546;-49
2022/12/18 09:00:07;;;;;;;34.03;20.10;;;1.60;99.90;;;;;;5034860;28;21794;-47
2022/12/18 09:02:34;;;;;;;34.05;21.50;;;1.60;99.90;;;;;;5050066;28;20033;-49
2022/12/18 09:05:01;;;;;;;31.45;19.33;;;1.60;99.90;;;;;;5048378;28;20056;-50
2022/12/18 09:07:28;;;;;;;31.92;19.65;;;1.60;99.90;;;;;;5043169;28;20056;-45
2022/12/18 09:09:55;;;;;;;29.52;19.95;;;1.70;99.90;;;;;;5036325;28;20140;-47
2022/12/18 09:12:21;;;;;;;32.90;20.90;;;1.70;99.90;;;;;;5035845;28;20041;-50
2022/12/18 09:14:48;;;;;;;33.53;20.38;;;1.70;99.90;;;;;;5034894;28;20120;-50
2022/12/18 09:17:15;;;;;;;32.40;20.15;;;1.70;99.90;;;;;;5033974;28;20137;-44
2022/12/18 09:19:42;;;;;;;30.50;19.95;;;1.70;99.90;;;;;;5045409;28;20057;-45
2022/12/18 09:22:09;;;;;;;32.13;21.33;;;1.70;99.90;;;;;;5039919;28;20099;-45
2022/12/18 09:24:36;;;;;;;37.83;20.95;;;1.70;99.90;;;;;;5036650;28;20049;-46
2022/12/18 09:27:02;;;;;;;32.40;20.83;;;1.70;99.90;;;;;;5052227;28;20049;-48
2022/12/18 09:29:30;;;;;;;31.52;20.13;;;1.70;99.90;;;;;;5037625;28;20045;-49
2022/12/18 09:31:56;;;;;;;30.40;20.15;;;1.80;99.90;;;;;;5035510;28;20049;-48
2022/12/18 09:34:23;;;;;;;28.27;19.52;;;1.80;99.90;;;;;;5053396;28;20095;-45
2022/12/18 09:36:50;;;;;;;33.30;20.52;;;1.80;99.90;;;;;;5053502;28;20044;-47
2022/12/18 09:39:16;;;;;;;32.38;20.63;;;1.80;99.90;;;;;;5045492;28;20120;-44
2022/12/18 09:41:47;;;;;;;31.95;19.75;;;1.80;99.90;;;;;;5033689;28;20068;-49
2022/12/18 09:44:14;;;;;;;28.45;18.88;;;1.80;99.90;;;;;;5036804;28;20403;-43
2022/12/18 09:46:41;;;;;;;29.45;19.05;;;1.90;99.90;;;;;;5032761;28;20076;-44
2022/12/18 09:49:08;;;;;;;31.27;17.95;;;1.90;99.90;;;;;;5034928;28;20037;-49
2022/12/18 09:51:35;;;;;;;33.22;20.48;;;1.90;99.90;;;;;;5042338;28;20042;-44
2022/12/18 09:54:01;;;;;;;29.38;17.88;;;2.00;99.90;;;;;;5030297;28;20107;-43
2022/12/18 09:56:29;;;;;;;28.00;18.65;;;2.00;99.90;;;;;;5032047;28;20091;-44
2022/12/18 09:58:56;;;;;;;26.13;18.15;;;2.00;99.90;;;;;;5032034;28;20060;-44
2022/12/18 10:01:23;;;;;;;26.38;18.42;;;2.00;99.90;;;;;;5032870;28;20436;-43
2022/12/18 10:03:51;;;;;;;29.90;18.15;;;2.10;99.90;;;;;;5033804;28;20046;-42
2022/12/18 10:06:18;;;;;;;27.25;17.80;;;2.00;99.90;;;;;;5033653;28;20092;-43
2022/12/18 10:08:44;;;;;;;29.02;17.98;;;2.10;99.90;;;;;;5033931;28;20436;-44
2022/12/18 10:11:11;;;;;;;27.20;17.92;;;2.10;99.90;;;;;;5033698;28;20075;-43
2022/12/18 10:13:38;;;;;;;25.88;17.52;;;2.20;99.90;;;;;;5033252;28;20084;-48
2022/12/18 10:16:04;;;;;;;26.13;17.00;;;2.20;99.90;;;;;;5032670;28;20404;-44
2022/12/18 10:18:31;;;;;;;26.60;17.35;;;2.20;99.90;;;;;;5032402;28;20050;-44
2022/12/18 10:20:58;;;;;;;24.83;16.83;;;2.20;99.90;;;;;;5033477;28;20103;-43
2022/12/18 10:23:25;;;;;;;28.00;18.40;;;2.20;99.90;;;;;;5033680;28;20099;-45
2022/12/18 10:25:52;;;;;;;27.30;17.63;;;2.20;99.90;;;;;;5033529;28;20047;-43
2022/12/18 10:28:19;;;;;;;27.42;17.35;;;2.20;99.90;;;;;;5032488;28;20461;-45
2022/12/18 10:30:45;;;;;;;26.52;17.40;;;2.30;99.90;;;;;;5031868;28;20103;-44
2022/12/18 10:33:12;;;;;;;29.35;17.67;;;2.30;99.90;;;;;;5031802;28;20049;-48
2022/12/18 10:35:39;;;;;;;25.55;17.80;;;2.30;99.90;;;;;;5031204;28;20038;-44
2022/12/18 10:38:06;;;;;;;25.75;16.48;;;2.30;99.90;;;;;;5030594;28;20046;-46
2022/12/18 10:40:33;;;;;;;28.13;15.90;;;2.30;99.90;;;;;;5030939;28;20121;-47
2022/12/18 10:43:00;;;;;;;24.27;16.80;;;2.40;99.90;;;;;;5032235;28;20091;-47
2022/12/18 10:45:27;;;;;;;26.75;17.20;;;2.40;99.90;;;;;;5050975;28;20045;-44
2022/12/18 10:47:53;;;;;;;24.70;16.38;;;2.40;99.90;;;;;;5051628;28;20045;-44
2022/12/18 10:50:20;;;;;;;25.98;16.23;;;2.50;99.90;;;;;;5051942;28;20372;-46
2022/12/18 10:52:47;;;;;;;23.58;16.35;;;2.50;99.90;;;;;;5051733;28;20045;-44
2022/12/18 10:55:13;;;;;;;24.02;15.75;;;2.60;99.90;;;;;;5050727;28;20076;-46
2022/12/18 10:57:41;;;;;;;26.10;16.58;;;2.60;99.90;;;;;;5051687;28;20559;-46
2022/12/18 11:00:08;;;;;;;22.77;15.65;;;2.60;99.90;;;;;;5052732;28;20041;-44
2022/12/18 11:02:34;;;;;;;26.27;16.13;;;2.60;99.90;;;;;;5055526;28;20052;-46
2022/12/18 11:05:02;;;;;;;24.83;16.52;;;2.70;99.90;;;;;;5052103;28;20052;-46
2022/12/18 11:07:28;;;;;;;23.70;16.27;;;2.70;99.90;;;;;;5039383;28;20080;-49
2022/12/18 11:09:55;;;;;;;24.10;16.67;;;2.70;99.90;;;;;;5036630;28;20045;-46
2022/12/18 11:12:22;;;;;;;25.33;17.42;;;2.70;99.90;;;;;;5042429;28;20069;-45
2022/12/18 11:14:48;;;;;;;26.05;17.60;;;2.70;99.90;;;;;;5035182;28;20443;-46
2022/12/18 11:17:15;;;;;;;25.77;17.95;;;2.70;99.90;;;;;;5036333;28;20534;-46
2022/12/18 11:19:51;;;;;;;24.02;17.10;;;2.80;99.90;;;;;;5036571;28;20045;-45
2022/12/18 11:22:18;;;;;;;27.70;18.55;;;2.80;99.90;;;;;;5036191;28;20043;-44
2022/12/18 11:24:45;;;;;;;31.05;19.33;;;2.80;99.90;;;;;;5036609;28;20042;-48
2022/12/18 11:27:32;;;;;;;26.65;17.85;;;2.90;99.90;;;;;;5048880;28;20472;-53
2022/12/18 11:29:58;;;;;;;27.75;19.08;;;2.90;99.90;;;;;;5035894;28;20088;-50
2022/12/18 11:32:25;;;;;;;26.48;18.52;;;2.90;99.90;;;;;;5035846;28;20459;-49
2022/12/18 11:34:52;;;;;;;28.40;18.95;;;2.90;99.90;;;;;;5034854;28;20124;-50
2022/12/18 11:37:25;;;;;;;31.73;20.15;;;2.90;99.90;;;;;;5041523;28;20485;-48
2022/12/18 11:39:52;;;;;;;30.75;19.30;;;3.00;99.90;;;;;;5036247;28;20048;-47
2022/12/18 11:42:19;;;;;;;28.02;18.85;;;3.00;99.90;;;;;;5044982;28;20110;-44
2022/12/18 11:44:46;;;;;;;26.65;19.52;;;3.00;99.90;;;;;;5035975;28;20041;-47
2022/12/18 11:47:12;;;;;;;29.08;19.60;;;3.00;99.90;;;;;;5034518;28;20080;-49
2022/12/18 11:49:39;;;;;;;27.60;18.85;;;3.00;99.90;;;;;;5034722;28;20136;-53
2022/12/18 11:52:06;;;;;;;29.23;20.42;;;3.00;99.90;;;;;;5036082;28;20532;-45
2022/12/18 11:54:33;;;;;;;29.45;19.63;;;3.00;99.90;;;;;;5035596;28;20099;-46
2022/12/18 11:57:00;;;;;;;31.23;19.90;;;3.00;99.90;;;;;;5035417;28;20050;-49
2022/12/18 11:59:26;;;;;;;28.92;20.10;;;3.00;99.90;;;;;;5051881;28;20041;-49
2022/12/18 12:01:53;;;;;;;28.10;19.70;;;3.00;99.90;;;;;;5054914;28;20071;-47
2022/12/18 12:04:20;;;;;;;29.85;18.98;;;3.00;99.90;;;;;;5055094;28;20055;-47
2022/12/18 12:06:47;;;;;;;32.92;21.20;;;2.90;99.90;;;;;;5054530;28;20055;-49
2022/12/18 12:09:14;;;;;;;33.25;20.38;;;3.00;99.90;;;;;;5055206;28;20546;-49
2022/12/18 12:11:41;;;;;;;31.35;20.05;;;3.00;99.90;;;;;;5054472;28;20083;-47
2022/12/18 12:14:07;;;;;;;30.33;19.70;;;3.00;99.90;;;;;;5054736;28;20095;-50
2022/12/18 12:16:34;;;;;;;28.52;19.40;;;3.00;99.90;;;;;;5054416;28;20075;-46
2022/12/18 12:19:01;;;;;;;31.48;19.77;;;3.00;99.90;;;;;;5054761;28;20040;-47
2022/12/18 12:21:28;;;;;;;25.70;18.77;;;3.00;99.90;;;;;;5054539;28;20147;-44
2022/12/18 12:23:55;;;;;;;28.05;19.02;;;3.00;99.90;;;;;;5054676;28;20095;-46
2022/12/18 12:26:22;;;;;;;28.88;18.63;;;3.00;99.90;;;;;;5053520;28;20427;-46
2022/12/18 12:28:49;;;;;;;27.13;19.65;;;3.00;99.90;;;;;;5054465;28;20045;-46
2022/12/18 12:31:15;;;;;;;26.25;18.80;;;3.00;99.90;;;;;;5053366;28;20068;-44
2022/12/18 12:33:42;;;;;;;23.85;18.08;;;3.00;99.90;;;;;;5053132;28;20456;-47
2022/12/18 12:36:10;;;;;;;28.27;20.02;;;3.00;99.90;;;;;;5053030;28;20080;-50